Time;durP1;ratioP1;P1;durP2;ratioP2;P2;SDS_P1;SDS_P2;PMS_P1;PMS_P2;Temp;Humidity;BMP_temperature;BMP_pressure;BME280_temperature;BME280_humidity;BME280_pressure;Samples;Min_cycle;Max_cycle;Signal;HPM_P1;HPM_P2
2022/03/31 00:00:40;;;;;;;6.32;1.60;;;;;;;;;;5000090;28;20418;-68
2022/03/31 00:03:07;;;;;;;5.13;1.42;;;;;;;;;;5007452;28;20500;-68
2022/03/31 00:05:33;;;;;;;6.32;1.58;;;;;;;;;;5000981;28;20433;-68
2022/03/31 00:08:00;;;;;;;5.43;1.48;;;;;;;;;;4983438;28;20434;-69
2022/03/31 00:10:26;;;;;;;3.58;1.30;;;;;;;;;;5000206;28;20443;-68
2022/03/31 00:12:54;;;;;;;4.57;1.70;;;;;;;;;;4999919;28;20534;-68
2022/03/31 00:15:20;;;;;;;7.28;1.67;;;;;;;;;;4977337;28;20427;-68
2022/03/31 00:17:47;;;;;;;4.60;1.60;;;;;;;;;;4986719;28;20468;-69
2022/03/31 00:20:13;;;;;;;5.53;1.55;;;;;;;;;;4995550;28;20427;-68
2022/03/31 00:22:39;;;;;;;5.03;1.30;;;;;;;;;;4981693;28;20425;-68
2022/03/31 00:25:06;;;;;;;4.37;1.30;;;;;;;;;;4986429;28;20478;-68
2022/03/31 00:27:32;;;;;;;5.50;1.50;;;;;;;;;;4998579;28;20834;-69
2022/03/31 00:29:59;;;;;;;4.57;1.30;;;;;;;;;;5005048;28;20443;-68
2022/03/31 00:32:25;;;;;;;6.28;1.35;;;;;;;;;;4996468;28;20465;-68
2022/03/31 00:34:51;;;;;;;8.90;1.60;;;;;;;;;;4993804;28;20423;-68
2022/03/31 00:37:17;;;;;;;4.93;1.70;;;;;;;;;;5003535;28;20428;-68
2022/03/31 00:39:44;;;;;;;4.93;1.50;;;4.00;99.90;;;;;;5002817;28;20517;-68
2022/03/31 00:42:11;;;;;;;5.43;1.40;;;;;;;;;;5004017;28;20509;-68
2022/03/31 00:44:37;;;;;;;4.80;1.40;;;;;;;;;;4975900;28;20425;-69
2022/03/31 00:47:04;;;;;;;5.32;1.73;;;;;;;;;;4998543;28;20417;-68
2022/03/31 00:49:32;;;;;;;3.28;1.50;;;;;;;;;;5003338;28;20474;-68
2022/03/31 00:51:58;;;;;;;7.80;1.80;;;;;;;;;;5001080;28;20416;-68
2022/03/31 00:54:27;;;;;;;5.20;1.63;;;4.00;99.90;;;;;;5006724;28;20504;-68
2022/03/31 00:56:54;;;;;;;7.05;1.88;;;;;;;;;;4977025;28;20429;-68
2022/03/31 00:59:20;;;;;;;5.82;1.80;;;;;;;;;;5003684;28;20428;-67
2022/03/31 01:01:47;;;;;;;9.38;1.95;;;;;;;;;;4988255;28;20421;-68
2022/03/31 01:04:13;;;;;;;5.30;1.80;;;;;;;;;;4988816;28;20436;-68
2022/03/31 01:06:40;;;;;;;4.70;1.58;;;;;;;;;;4968098;28;20432;-69
2022/03/31 01:09:06;;;;;;;4.23;1.60;;;;;;;;;;5009631;28;20441;-68
2022/03/31 01:11:33;;;;;;;7.47;2.08;;;;;;;;;;4996251;28;20446;-68
2022/03/31 01:13:59;;;;;;;4.78;1.70;;;;;;;;;;4991848;28;20431;-69
2022/03/31 01:16:25;;;;;;;6.35;1.77;;;;;;;;;;4987227;28;20481;-69
2022/03/31 01:18:52;;;;;;;5.55;1.73;;;;;;;;;;4988917;28;20440;-68
2022/03/31 01:21:18;;;;;;;4.55;1.80;;;;;;;;;;4988971;28;20458;-69
2022/03/31 01:23:45;;;;;;;5.03;1.90;;;;;;;;;;4985016;28;20442;-68
2022/03/31 01:26:12;;;;;;;5.60;1.95;;;4.00;99.90;;;;;;4996291;28;20432;-68
2022/03/31 01:28:41;;;;;;;4.75;1.73;;;3.90;99.90;;;;;;4973706;28;20496;-69
2022/03/31 01:31:07;;;;;;;5.15;1.88;;;;;;;;;;4980141;28;20443;-68
2022/03/31 01:33:33;;;;;;;4.78;1.70;;;;;;;;;;4964615;28;20428;-68
2022/03/31 01:36:00;;;;;;;5.40;1.70;;;;;;;;;;4998616;28;20444;-68
2022/03/31 01:38:26;;;;;;;6.22;1.63;;;;;;;;;;5004396;28;20413;-68
2022/03/31 01:40:52;;;;;;;3.55;1.70;;;;;;;;;;5001661;28;20442;-68
2022/03/31 01:43:20;;;;;;;4.95;1.70;;;;;;;;;;4999285;28;20436;-68
2022/03/31 01:45:49;;;;;;;7.10;1.65;;;;;;;;;;4995772;28;20428;-68
2022/03/31 01:48:16;;;;;;;6.10;1.48;;;;;;;;;;5000419;28;20443;-67
2022/03/31 01:50:42;;;;;;;6.00;1.70;;;;;;;;;;5006169;28;20430;-67
2022/03/31 01:53:09;;;;;;;6.35;1.58;;;3.90;99.90;;;;;;4991678;28;20931;-68
2022/03/31 01:55:35;;;;;;;5.63;1.42;;;;;;;;;;4992151;28;20429;-68
2022/03/31 01:58:02;;;;;;;5.90;1.40;;;;;;;;;;5004875;28;20836;-68
2022/03/31 02:00:28;;;;;;;3.80;1.30;;;;;;;;;;4987008;28;20493;-67
2022/03/31 02:02:54;;;;;;;5.72;1.40;;;;;;;;;;4998686;28;20425;-68
2022/03/31 02:05:21;;;;;;;4.60;1.60;;;;;;;;;;5005610;28;20509;-67
2022/03/31 02:07:47;;;;;;;3.77;1.33;;;;;;;;;;4998929;28;20430;-68
2022/03/31 02:10:14;;;;;;;4.20;1.50;;;;;;;;;;4992752;28;20440;-68
2022/03/31 02:12:41;;;;;;;4.25;1.38;;;;;;;;;;4969420;28;20425;-68
2022/03/31 02:15:09;;;;;;;5.47;1.30;;;4.10;99.90;;;;;;5001974;28;20439;-68
2022/03/31 02:17:35;;;;;;;5.80;1.65;;;;;;;;;;5001807;28;20426;-67
2022/03/31 02:20:01;;;;;;;5.72;1.50;;;;;;;;;;4991912;28;20433;-67
2022/03/31 02:22:27;;;;;;;3.58;1.40;;;;;;;;;;5002544;28;20496;-68
2022/03/31 02:24:53;;;;;;;4.40;1.23;;;;;;;;;;4978080;28;20574;-68
2022/03/31 02:27:20;;;;;;;5.55;1.50;;;;;;;;;;5006195;28;20792;-67
2022/03/31 02:29:46;;;;;;;3.97;2.00;;;;;;;;;;5006762;28;20508;-67
2022/03/31 02:32:12;;;;;;;4.70;1.95;;;;;;;;;;4993075;28;22316;-68
2022/03/31 02:34:38;;;;;;;4.33;2.00;;;;;;;;;;5008698;28;20548;-67
2022/03/31 02:37:04;;;;;;;5.75;2.80;;;;;;;;;;4981732;28;20450;-67
2022/03/31 02:39:30;;;;;;;5.00;2.70;;;3.70;99.90;;;;;;4994973;28;20429;-67
2022/03/31 02:41:57;;;;;;;4.25;2.78;;;;;;;;;;5002355;28;20462;-67
2022/03/31 02:44:23;;;;;;;7.68;3.60;;;;;;;;;;5009205;28;20468;-67
2022/03/31 02:46:49;;;;;;;7.63;4.00;;;;;;;;;;4999567;28;20542;-67
2022/03/31 02:49:15;;;;;;;8.85;4.00;;;;;;;;;;5006152;28;20429;-68
2022/03/31 02:51:41;;;;;;;6.33;3.93;;;;;;;;;;4991322;28;20522;-67
2022/03/31 02:56:52;;;;;;;8.35;5.35;;;;;;;;;;4975105;28;21121;-67
2022/03/31 02:59:18;;;;;;;9.17;5.90;;;;;;;;;;5004446;28;20482;-67
2022/03/31 03:01:44;;;;;;;9.20;5.85;;;;;;;;;;5004086;28;20439;-68
2022/03/31 03:04:11;;;;;;;9.00;5.82;;;;;;;;;;4990524;28;20448;-67
2022/03/31 03:06:37;;;;;;;8.45;6.10;;;;;;;;;;5000230;28;20934;-68
2022/03/31 03:09:04;;;;;;;11.35;6.55;;;;;;;;;;5002957;28;20779;-68
2022/03/31 03:11:30;;;;;;;10.20;7.10;;;;;;;;;;4983032;28;20811;-67
2022/03/31 03:13:56;;;;;;;12.13;7.70;;;;;;;;;;4982773;28;20466;-67
2022/03/31 03:16:24;;;;;;;12.77;8.27;;;;;;;;;;4973959;28;20456;-68
2022/03/31 03:18:50;;;;;;;12.50;7.63;;;;;;;;;;4988870;28;20434;-68
2022/03/31 03:21:16;;;;;;;14.10;8.70;;;;;;;;;;5004775;28;20429;-68
2022/03/31 03:23:42;;;;;;;11.98;8.40;;;;;;;;;;4997081;28;20430;-68
2022/03/31 03:26:09;;;;;;;14.23;8.87;;;;;;;;;;4998638;28;20429;-69
2022/03/31 03:28:36;;;;;;;14.10;9.45;;;;;;;;;;4998168;28;20429;-69
2022/03/31 03:31:03;;;;;;;14.60;10.35;;;;;;;;;;4996116;28;20939;-69
2022/03/31 03:33:29;;;;;;;16.13;11.43;;;;;;;;;;5005195;28;20448;-69
2022/03/31 03:35:56;;;;;;;16.65;11.63;;;;;;;;;;5008282;28;20490;-68
2022/03/31 03:38:22;;;;;;;16.63;12.10;;;;;;;;;;5006697;28;20432;-69
2022/03/31 03:40:48;;;;;;;17.13;12.02;;;;;;;;;;4995170;28;20454;-68
2022/03/31 03:43:14;;;;;;;16.80;12.33;;;;;;;;;;5000336;28;20482;-68
2022/03/31 03:45:41;;;;;;;16.55;12.05;;;;;;;;;;4997099;28;20447;-68
2022/03/31 03:48:08;;;;;;;16.75;13.27;;;;;;;;;;5000193;28;20524;-68
2022/03/31 03:50:34;;;;;;;17.10;13.25;;;;;;;;;;4990147;28;20448;-69
2022/03/31 03:53:04;;;;;;;18.02;12.95;;;;;;;;;;4998281;28;20450;-68
2022/03/31 03:55:34;;;;;;;15.13;10.07;;;;;;;;;;4988460;28;20463;-68
2022/03/31 03:58:00;;;;;;;12.15;8.90;;;;;;;;;;5005481;28;20438;-68
2022/03/31 04:00:27;;;;;;;10.63;8.10;;;;;;;;;;4985504;28;20436;-69
2022/03/31 04:02:53;;;;;;;10.98;8.60;;;;;;;;;;4999757;28;20432;-68
2022/03/31 04:05:20;;;;;;;10.07;6.97;;;;;;;;;;4985919;28;20424;-69
2022/03/31 04:07:46;;;;;;;9.60;6.53;;;;;;;;;;5000768;28;20429;-68
2022/03/31 04:10:12;;;;;;;9.35;7.07;;;;;;;;;;4992921;28;20440;-68
2022/03/31 04:12:39;;;;;;;8.45;5.85;;;;;;;;;;4993830;28;20937;-69
2022/03/31 04:15:06;;;;;;;8.73;5.47;;;;;;;;;;5007932;28;20479;-70
2022/03/31 04:17:32;;;;;;;8.10;5.27;;;;;;;;;;4988369;28;20423;-69
2022/03/31 04:19:59;;;;;;;9.03;5.60;;;;;;;;;;5000249;28;20486;-70
2022/03/31 04:22:25;;;;;;;6.85;5.40;;;;;;;;;;5000081;28;20548;-70
2022/03/31 04:24:51;;;;;;;7.78;5.45;;;;;;;;;;5004507;28;20804;-70
2022/03/31 04:27:18;;;;;;;9.02;6.53;;;;;;;;;;5009299;28;20457;-71
2022/03/31 04:29:44;;;;;;;8.27;6.60;;;;;;;;;;4993362;28;20449;-69
2022/03/31 04:32:10;;;;;;;9.98;7.00;;;;;;;;;;4978300;28;20425;-70
2022/03/31 04:34:36;;;;;;;9.80;7.55;;;;;;;;;;5002367;28;20441;-70
2022/03/31 04:37:03;;;;;;;9.52;7.65;;;;;;;;;;4977896;28;20825;-68
2022/03/31 04:39:29;;;;;;;11.88;8.50;;;;;;;;;;5006977;28;20428;-69
2022/03/31 04:41:55;;;;;;;9.75;7.70;;;;;;;;;;4995418;28;20470;-69
2022/03/31 04:44:21;;;;;;;10.15;7.90;;;;;;;;;;5007023;28;20429;-69
2022/03/31 04:46:47;;;;;;;9.87;8.10;;;;;;;;;;4988422;28;20458;-69
2022/03/31 04:49:14;;;;;;;10.40;8.15;;;;;;;;;;5005243;28;20452;-70
2022/03/31 04:51:40;;;;;;;10.43;7.82;;;;;;;;;;4987500;28;20429;-69
2022/03/31 04:54:06;;;;;;;9.23;7.47;;;;;;;;;;4985579;28;20432;-69
2022/03/31 04:56:32;;;;;;;10.15;7.70;;;;;;;;;;4974633;28;20441;-69
2022/03/31 04:58:58;;;;;;;9.20;7.60;;;;;;;;;;4997210;28;20425;-69
2022/03/31 05:01:25;;;;;;;9.73;7.47;;;;;;;;;;4982321;28;20580;-69
2022/03/31 05:03:54;;;;;;;8.73;7.18;;;;;;;;;;5001293;28;20426;-69
2022/03/31 05:06:21;;;;;;;9.07;7.22;;;;;;;;;;4987438;28;20463;-69
2022/03/31 05:08:47;;;;;;;8.10;6.35;;;;;;;;;;4979019;28;20442;-69
2022/03/31 05:11:13;;;;;;;8.45;6.70;;;;;;;;;;5000703;28;22131;-69
2022/03/31 05:13:39;;;;;;;8.30;6.53;;;;;;;;;;4996322;28;21642;-69
2022/03/31 05:16:05;;;;;;;9.18;7.05;;;;;;;;;;4998578;28;20426;-70
2022/03/31 05:18:32;;;;;;;12.83;7.37;;;;;;;;;;4995575;28;20487;-69
2022/03/31 05:20:58;;;;;;;12.95;7.65;;;;;;;;;;4988742;28;20429;-69
2022/03/31 05:23:24;;;;;;;8.50;7.05;;;;;;;;;;4996036;28;20423;-70
2022/03/31 05:25:50;;;;;;;8.52;6.80;;;;;;;;;;5000431;28;20440;-70
2022/03/31 05:28:16;;;;;;;8.45;6.43;;;;;;;;;;4976444;28;21538;-70
2022/03/31 05:30:43;;;;;;;8.65;6.50;;;;;;;;;;4988589;28;20443;-70
2022/03/31 05:33:10;;;;;;;9.15;6.85;;;;;;;;;;4989124;28;20470;-70
2022/03/31 05:35:36;;;;;;;9.02;6.90;;;;;;;;;;4992303;28;20427;-71
2022/03/31 05:38:03;;;;;;;10.02;7.40;;;;;;;;;;4997976;28;20422;-70
2022/03/31 05:40:29;;;;;;;9.25;7.07;;;;;;;;;;4972992;28;21087;-71
2022/03/31 05:42:55;;;;;;;9.50;7.07;;;;;;;;;;4986830;28;20439;-71
2022/03/31 05:45:21;;;;;;;10.33;7.30;;;;;;;;;;4976107;28;20432;-71
2022/03/31 05:47:48;;;;;;;9.68;7.13;;;;;;;;;;5005574;28;21164;-70
2022/03/31 05:50:14;;;;;;;9.68;7.22;;;;;;;;;;5009157;28;20472;-71
2022/03/31 05:52:42;;;;;;;9.52;7.60;;;;;;;;;;4968615;28;20434;-71
2022/03/31 05:55:27;;;;;;;10.90;7.93;;;;;;;;;;4986763;28;20433;-70
2022/03/31 05:57:53;;;;;;;10.10;7.95;;;;;;;;;;4996505;28;20434;-71
2022/03/31 06:00:20;;;;;;;11.77;8.47;;;;;;;;;;5005809;28;21135;-71
2022/03/31 06:02:46;;;;;;;11.93;8.25;;;;;;;;;;4985932;28;20515;-71
2022/03/31 06:05:13;;;;;;;10.52;8.30;;;;;;;;;;4997650;28;20500;-71
2022/03/31 06:07:39;;;;;;;11.95;8.50;;;;;;;;;;5003466;28;20953;-71
2022/03/31 06:10:06;;;;;;;11.65;8.25;;;;;;;;;;5005809;28;20417;-71
2022/03/31 06:12:32;;;;;;;12.37;8.90;;;;;;;;;;4973661;28;20502;-71
2022/03/31 06:14:59;;;;;;;13.15;8.88;;;;;;;;;;5001351;28;20427;-71
2022/03/31 06:17:25;;;;;;;13.52;9.55;;;;;;;;;;5006714;28;20413;-71
2022/03/31 06:19:51;;;;;;;11.18;9.23;;;;;;;;;;5008264;28;20482;-71
2022/03/31 06:22:17;;;;;;;12.18;9.63;;;;;;;;;;4990955;28;21135;-71
2022/03/31 06:24:43;;;;;;;13.45;10.57;;;;;;;;;;4983654;28;20453;-71
2022/03/31 06:27:11;;;;;;;13.38;10.10;;;;;;;;;;4984489;28;20435;-71
2022/03/31 06:29:38;;;;;;;12.07;9.80;;;;;;;;;;4990764;28;20562;-72
2022/03/31 06:32:06;;;;;;;12.32;9.95;;;;;;;;;;4982172;28;20436;-71
2022/03/31 06:34:32;;;;;;;12.85;10.38;;;;;;;;;;4998328;28;20504;-71
2022/03/31 06:36:58;;;;;;;12.18;10.20;;;;;;;;;;5004961;28;20439;-72
2022/03/31 06:39:25;;;;;;;14.02;10.45;;;;;;;;;;4993757;28;20420;-71
2022/03/31 06:41:52;;;;;;;12.18;10.27;;;;;;;;;;4982978;28;20947;-71
2022/03/31 06:44:21;;;;;;;12.10;10.10;;;;;;;;;;4974075;28;20433;-71
2022/03/31 06:46:47;;;;;;;12.50;9.63;;;;;;;;;;4963619;28;20528;-71
2022/03/31 06:49:13;;;;;;;11.75;9.95;;;;;;;;;;4955938;28;20644;-72
2022/03/31 06:51:39;;;;;;;13.27;10.63;;;;;;;;;;4984573;28;20593;-71
2022/03/31 06:54:06;;;;;;;13.18;10.48;;;;;;;;;;4975464;28;20434;-71
2022/03/31 06:56:32;;;;;;;13.50;11.27;;;;;;;;;;4966920;28;20470;-71
2022/03/31 06:59:00;;;;;;;13.55;11.45;;;;;;;;;;4984147;28;20880;-71
2022/03/31 07:01:26;;;;;;;13.48;11.23;;;;;;;;;;4981844;28;20460;-71
2022/03/31 07:03:52;;;;;;;13.37;11.07;;;;;;;;;;4984468;28;20474;-71
2022/03/31 07:06:18;;;;;;;15.57;12.25;;;;;;;;;;4967626;28;20431;-71
2022/03/31 07:08:44;;;;;;;15.85;12.25;;;;;;;;;;4987769;28;20485;-71
2022/03/31 07:11:11;;;;;;;13.80;11.65;;;;;;;;;;4959616;28;20997;-71
2022/03/31 07:13:38;;;;;;;15.40;12.07;;;;;;;;;;4978287;28;20426;-70
2022/03/31 07:16:04;;;;;;;12.48;10.93;;;;;;;;;;4966424;28;20435;-72
2022/03/31 07:18:30;;;;;;;12.57;10.57;;;;;;;;;;4963282;28;20510;-73
2022/03/31 07:20:59;;;;;;;12.63;10.63;;;;;;;;;;4973159;28;20450;-73
2022/03/31 07:23:26;;;;;;;13.82;11.82;;;;;;;;;;4990169;28;20424;-73
2022/03/31 07:25:56;;;;;;;13.23;11.13;;;;;;;;;;4978292;28;20443;-72
2022/03/31 07:28:23;;;;;;;14.07;11.52;;;;;;;;;;4963386;28;20434;-73
2022/03/31 07:30:49;;;;;;;12.00;10.70;;;;;;;;;;4963721;28;20450;-73
2022/03/31 07:33:15;;;;;;;13.13;11.50;;;;;;;;;;4980381;28;20853;-73
2022/03/31 07:35:42;;;;;;;13.75;11.65;;;;;;;;;;4972884;28;20436;-73
2022/03/31 07:38:09;;;;;;;14.00;11.95;;;;;;;;;;4966700;28;20430;-73
2022/03/31 07:40:39;;;;;;;13.70;11.83;;;;;;;;;;4977894;28;20530;-74
2022/03/31 07:43:05;;;;;;;13.70;12.13;;;;;;;;;;4971537;28;20430;-73
2022/03/31 07:45:34;;;;;;;14.90;12.43;;;;;;;;;;4957047;28;20515;-74
2022/03/31 07:48:00;;;;;;;14.90;12.52;;;;;;;;;;4984515;28;20453;-72
2022/03/31 07:50:26;;;;;;;14.70;12.35;;;;;;;;;;4981121;28;20521;-73
2022/03/31 07:52:52;;;;;;;15.38;13.15;;;;;;;;;;4979610;28;20434;-74
2022/03/31 07:55:19;;;;;;;15.75;13.27;;;;;;;;;;4958289;28;21873;-73
2022/03/31 07:57:46;;;;;;;15.13;12.50;;;;;;;;;;4980454;28;20512;-73
2022/03/31 08:00:13;;;;;;;17.38;12.20;;;;;;;;;;4975918;28;20441;-74
2022/03/31 08:02:43;;;;;;;13.25;11.85;;;;;;;;;;4979601;28;22071;-73
2022/03/31 08:05:09;;;;;;;13.00;11.18;;;;;;;;;;4971762;28;20471;-74
2022/03/31 08:07:36;;;;;;;12.77;11.13;;;;;;;;;;4963650;28;20431;-73
2022/03/31 08:10:03;;;;;;;14.48;12.27;;;3.40;99.90;;;;;;4963614;28;20432;-74
2022/03/31 08:12:30;;;;;;;14.40;12.45;;;;;;;;;;4977198;28;20434;-73
2022/03/31 08:14:56;;;;;;;13.60;11.50;;;;;;;;;;4975468;28;20421;-75
2022/03/31 08:17:23;;;;;;;12.90;11.18;;;;;;;;;;4960026;28;20453;-75
2022/03/31 08:19:49;;;;;;;13.80;12.13;;;;;;;;;;4973820;28;20435;-74
2022/03/31 08:22:17;;;;;;;14.15;11.63;;;;;;;;;;4979567;28;20430;-74
2022/03/31 08:24:44;;;;;;;13.43;11.73;;;;;;;;;;4975754;28;20508;-74
2022/03/31 08:27:10;;;;;;;13.95;11.65;;;;;;;;;;4963360;28;20443;-74
2022/03/31 08:29:36;;;;;;;13.13;11.38;;;;;;;;;;4976209;28;20453;-74
2022/03/31 08:32:04;;;;;;;15.38;12.45;;;;;;;;;;4978673;28;20426;-73
2022/03/31 08:34:30;;;;;;;18.00;12.00;;;;;;;;;;4963357;28;20469;-75
2022/03/31 08:36:56;;;;;;;11.90;10.60;;;;;;;;;;4973007;28;20552;-74
2022/03/31 08:39:22;;;;;;;12.02;10.07;;;;;;;;;;4984724;28;20842;-74
2022/03/31 08:41:49;;;;;;;13.20;10.30;;;;;;;;;;4988286;28;20431;-73
2022/03/31 08:44:15;;;;;;;12.48;9.65;;;;;;;;;;4981145;28;20443;-74
2022/03/31 08:46:42;;;;;;;10.68;8.88;;;;;;;;;;4975037;28;20437;-75
2022/03/31 08:49:09;;;;;;;11.70;9.88;;;;;;;;;;4962954;28;20435;-74
2022/03/31 08:51:35;;;;;;;11.37;8.83;;;;;;;;;;4954966;28;20520;-71
2022/03/31 08:54:02;;;;;;;10.93;8.85;;;;;;;;;;4980468;28;20429;-72
2022/03/31 08:56:28;;;;;;;11.07;9.30;;;;;;;;;;4971656;28;20531;-72
2022/03/31 08:58:54;;;;;;;11.70;9.77;;;;;;;;;;4952839;28;20434;-72
2022/03/31 09:01:20;;;;;;;10.60;8.55;;;;;;;;;;4980869;28;20430;-71
2022/03/31 09:03:46;;;;;;;11.03;8.97;;;;;;;;;;4978222;28;20498;-72
2022/03/31 09:06:23;;;;;;;11.93;9.45;;;;;;;;;;4977044;28;20442;-72
2022/03/31 09:08:56;;;;;;;12.23;10.03;;;;;;;;;;4975247;28;20477;-72
2022/03/31 09:11:29;;;;;;;11.07;8.65;;;;;;;;;;4977460;28;20454;-72
2022/03/31 09:13:56;;;;;;;9.38;7.93;;;;;;;;;;4944169;28;20442;-71
2022/03/31 09:16:29;;;;;;;9.70;7.68;;;;;;;;;;4964136;28;20453;-72
2022/03/31 09:19:00;;;;;;;9.90;8.18;;;;;;;;;;4962035;28;20425;-72
2022/03/31 09:21:26;;;;;;;10.05;7.85;;;;;;;;;;4962078;28;20469;-72
2022/03/31 09:23:52;;;;;;;11.15;8.65;;;;;;;;;;4965740;28;20430;-72
2022/03/31 09:26:18;;;;;;;13.65;9.30;;;;;;;;;;4955265;28;20496;-72
2022/03/31 09:28:45;;;;;;;15.73;9.50;;;;;;;;;;4983315;28;20438;-70
2022/03/31 09:31:12;;;;;;;14.82;10.50;;;;;;;;;;4951284;28;20512;-72
2022/03/31 09:33:45;;;;;;;15.03;10.83;;;;;;;;;;4978218;28;20433;-72
2022/03/31 09:36:17;;;;;;;15.95;11.20;;;;;;;;;;4964677;28;20498;-72
2022/03/31 09:38:54;;;;;;;26.00;12.38;;;;;;;;;;4980758;28;20810;-73
2022/03/31 09:41:24;;;;;;;19.13;12.85;;;;;;;;;;4964125;28;20438;-72
2022/03/31 09:43:51;;;;;;;19.70;13.33;;;;;;;;;;4953906;28;21296;-71
2022/03/31 09:46:21;;;;;;;21.33;14.20;;;;;;;;;;4959568;28;20423;-72
2022/03/31 09:48:48;;;;;;;20.63;14.00;;;;;;;;;;4967221;28;20460;-72
2022/03/31 09:51:14;;;;;;;20.38;13.75;;;;;;;;;;4965385;28;20455;-72
2022/03/31 09:53:41;;;;;;;20.45;13.65;;;;;;;;;;4965805;28;20424;-72
2022/03/31 09:56:08;;;;;;;19.48;12.98;;;;;;;;;;4963907;28;20477;-72
2022/03/31 09:58:38;;;;;;;19.13;12.83;;;2.30;99.90;;;;;;4953364;28;20437;-72
2022/03/31 10:01:04;;;;;;;21.77;13.02;;;;;;;;;;5052333;28;20446;-72
2022/03/31 10:03:31;;;;;;;19.05;12.57;;;;;;;;;;4963951;28;20428;-71
2022/03/31 10:06:01;;;;;;;18.17;12.50;;;;;;;;;;4964846;28;20438;-70
2022/03/31 10:08:32;;;;;;;17.90;11.70;;;;;;;;;;4965594;28;20440;-71
2022/03/31 10:10:59;;;;;;;19.40;12.48;;;;;;;;;;4961133;28;20526;-70
2022/03/31 10:13:27;;;;;;;17.00;11.90;;;;;;;;;;4966957;28;20510;-71
2022/03/31 10:15:59;;;;;;;16.52;11.23;;;;;;;;;;4979439;28;20430;-72
2022/03/31 10:18:25;;;;;;;17.30;11.75;;;;;;;;;;4984254;28;20442;-72
2022/03/31 10:20:58;;;;;;;17.55;12.13;;;;;;;;;;4964604;28;20612;-71
2022/03/31 10:26:25;;;;;;;29.92;13.75;;;;;;;;;;4981037;28;20439;-71
2022/03/31 10:29:02;;;;;;;16.83;12.05;;;;;;;;;;4961338;28;20434;-71
2022/03/31 10:31:38;;;;;;;17.42;12.10;;;;;;;;;;4981424;28;20516;-72
2022/03/31 10:34:05;;;;;;;16.77;11.70;;;;;;;;;;4969077;28;20442;-72
2022/03/31 10:36:39;;;;;;;16.55;11.55;;;;;;;;;;4985526;28;21054;-72
2022/03/31 10:39:06;;;;;;;31.48;12.60;;;;;;;;;;4966668;28;20458;-72
2022/03/31 10:41:37;;;;;;;14.45;10.63;;;;;;;;;;4987858;28;20453;-72
2022/03/31 10:44:04;;;;;;;16.00;11.68;;;;;;;;;;4967682;28;20450;-73
2022/03/31 10:46:32;;;;;;;17.17;11.88;;;;;;;;;;4967075;28;20441;-72
2022/03/31 10:48:59;;;;;;;25.67;12.70;;;;;;;;;;4985880;28;20435;-72
2022/03/31 10:51:38;;;;;;;16.13;11.57;;;;;;;;;;4970590;28;20439;-72
2022/03/31 10:54:05;;;;;;;18.70;12.05;;;2.20;99.90;;;;;;4971966;28;20438;-72
2022/03/31 10:56:32;;;;;;;15.75;11.55;;;;;;;;;;4984583;28;20441;-73
2022/03/31 10:59:00;;;;;;;15.68;11.68;;;;;;;;;;4954061;28;20487;-72
2022/03/31 11:01:30;;;;;;;15.20;10.75;;;;;;;;;;4986414;28;20514;-72
2022/03/31 11:04:13;;;;;;;13.90;10.17;;;;;;;;;;4988391;28;20442;-73
2022/03/31 11:06:46;;;;;;;14.52;10.65;;;2.10;99.90;;;;;;4968958;28;20429;-72
2022/03/31 11:09:22;;;;;;;15.77;11.27;;;;;;;;;;4968371;28;20467;-73
2022/03/31 11:11:51;;;;;;;14.13;10.32;;;;;;;;;;4968294;28;20458;-72
2022/03/31 11:14:17;;;;;;;15.32;10.82;;;;;;;;;;5000583;28;20848;-73
2022/03/31 11:16:44;;;;;;;12.95;9.68;;;;;;;;;;4968323;28;20469;-73
2022/03/31 11:19:11;;;;;;;21.75;11.02;;;;;;;;;;4987496;28;20470;-73
2022/03/31 11:21:43;;;;;;;11.70;9.30;;;;;;;;;;4971708;28;20423;-73
2022/03/31 11:24:10;;;;;;;10.77;8.45;;;;;;;;;;4953009;28;20438;-76
2022/03/31 11:26:40;;;;;;;10.88;8.70;;;;;;;;;;4965946;28;20438;-72
2022/03/31 11:29:14;;;;;;;10.52;8.65;;;;;;;;;;4970385;28;20430;-73
2022/03/31 11:31:46;;;;;;;11.40;8.88;;;;;;;;;;4979591;28;21221;-73
2022/03/31 11:34:16;;;;;;;9.38;7.68;;;;;;;;;;4965129;28;20443;-73
2022/03/31 11:36:43;;;;;;;10.50;8.37;;;;;;;;;;4966490;28;20436;-73
2022/03/31 11:39:10;;;;;;;10.63;8.13;;;;;;;;;;4956624;28;20435;-73
2022/03/31 11:41:40;;;;;;;11.00;8.27;;;;;;;;;;4964981;28;20426;-73
2022/03/31 11:44:07;;;;;;;10.63;8.18;;;;;;;;;;4981805;28;20435;-73
2022/03/31 11:46:39;;;;;;;11.23;7.97;;;;;;;;;;4983909;28;20490;-73
2022/03/31 11:49:13;;;;;;;11.00;8.68;;;;;;;;;;4978280;28;20432;-73
2022/03/31 11:51:39;;;;;;;10.35;8.57;;;;;;;;;;4965172;28;20442;-73
2022/03/31 11:54:09;;;;;;;11.23;8.63;;;;;;;;;;4954269;28;20978;-73
2022/03/31 11:56:35;;;;;;;10.33;8.03;;;;;;;;;;4980848;28;20419;-73
2022/03/31 11:59:03;;;;;;;12.10;8.57;;;;;;;;;;4968415;28;20432;-73
2022/03/31 12:01:47;;;;;;;10.88;8.52;;;;;;;;;;4968675;28;20498;-73
2022/03/31 12:04:24;;;;;;;10.55;8.38;;;;;;;;;;4983573;28;20858;-73
2022/03/31 12:06:57;;;;;;;11.25;9.23;;;;;;;;;;4980966;28;20521;-73
2022/03/31 12:09:26;;;;;;;11.43;9.13;;;;;;;;;;4986620;28;20426;-73
2022/03/31 12:11:56;;;;;;;12.70;8.98;;;;;;;;;;4964910;28;20462;-73
2022/03/31 12:14:24;;;;;;;11.40;8.80;;;;;;;;;;4984369;28;20485;-72
2022/03/31 12:16:54;;;;;;;11.20;8.65;;;;;;;;;;4959776;28;20426;-73
2022/03/31 12:19:21;;;;;;;11.27;8.90;;;;;;;;;;4977714;28;20559;-73
2022/03/31 12:21:51;;;;;;;11.65;8.73;;;;;;;;;;4985000;28;20431;-73
2022/03/31 12:24:17;;;;;;;11.30;8.95;;;;;;;;;;4968016;28;21211;-73
2022/03/31 12:26:53;;;;;;;11.07;8.73;;;;;;;;;;4972893;28;20439;-72
2022/03/31 12:29:20;;;;;;;12.52;9.98;;;;;;;;;;4982922;28;20845;-72
2022/03/31 12:31:46;;;;;;;13.00;9.57;;;;;;;;;;4985977;28;20484;-72
2022/03/31 12:34:12;;;;;;;12.77;9.70;;;;;;;;;;4986428;28;20438;-72
2022/03/31 12:36:39;;;;;;;11.77;9.25;;;;;;;;;;4961975;28;20471;-72
2022/03/31 12:39:06;;;;;;;18.65;10.43;;;;;;;;;;4962930;28;20435;-71
2022/03/31 12:41:36;;;;;;;12.30;9.80;;;;;;;;;;4984534;28;20434;-71
2022/03/31 12:44:05;;;;;;;21.95;11.05;;;;;;;;;;4985968;28;20452;-71
2022/03/31 12:46:33;;;;;;;14.20;10.85;;;;;;;;;;4966875;28;20496;-73
2022/03/31 12:49:07;;;;;;;14.40;10.50;;;;;;;;;;4967928;28;20566;-71
2022/03/31 12:51:47;;;;;;;14.73;10.45;;;;;;;;;;4967118;28;20438;-71
2022/03/31 12:54:27;;;;;;;14.27;11.02;;;;;;;;;;4967226;28;20511;-71
2022/03/31 12:57:00;;;;;;;14.70;10.60;;;;;;;;;;4966520;28;20470;-70
2022/03/31 12:59:27;;;;;;;14.25;11.32;;;;;;;;;;4963486;28;20442;-71
2022/03/31 13:02:03;;;;;;;14.98;11.88;;;;;;;;;;4978595;28;20501;-73
2022/03/31 13:04:30;;;;;;;15.82;12.65;;;;;;;;;;4965701;28;20430;-71
2022/03/31 13:06:56;;;;;;;17.00;13.07;;;;;;;;;;4982492;28;20474;-71
2022/03/31 13:09:22;;;;;;;16.08;12.45;;;;;;;;;;4969645;28;20431;-71
2022/03/31 13:11:51;;;;;;;16.88;13.30;;;;;;;;;;4963159;28;20917;-71
2022/03/31 13:14:19;;;;;;;16.95;13.48;;;;;;;;;;4975818;28;21007;-71
2022/03/31 13:16:46;;;;;;;19.05;13.73;;;;;;;;;;4965580;28;20433;-71
2022/03/31 13:19:12;;;;;;;18.40;14.07;;;;;;;;;;4983961;28;20427;-71
2022/03/31 13:21:38;;;;;;;18.83;14.80;;;;;;;;;;4952184;28;20493;-71
2022/03/31 13:24:05;;;;;;;20.13;15.50;;;;;;;;;;4953954;28;20433;-72
2022/03/31 13:26:31;;;;;;;22.55;16.90;;;;;;;;;;4951722;28;20453;-72
2022/03/31 13:28:57;;;;;;;20.15;15.52;;;;;;;;;;4953604;28;20523;-72
2022/03/31 13:31:24;;;;;;;21.77;16.88;;;;;;;;;;4957858;28;20468;-72
2022/03/31 13:33:50;;;;;;;25.60;19.60;;;;;;;;;;4985001;28;20435;-72
2022/03/31 13:36:16;;;;;;;27.30;22.27;;;;;;;;;;4981454;28;20466;-72
2022/03/31 13:38:42;;;;;;;25.58;19.67;;;;;;;;;;4951832;28;20428;-72
2022/03/31 13:41:08;;;;;;;24.85;19.58;;;;;;;;;;4963300;28;20436;-70
2022/03/31 13:43:35;;;;;;;26.65;19.10;;;;;;;;;;4982520;28;20431;-71
2022/03/31 13:46:01;;;;;;;24.75;18.92;;;;;;;;;;4970664;28;20466;-71
2022/03/31 13:48:27;;;;;;;25.73;19.52;;;;;;;;;;4967538;28;20458;-71
2022/03/31 13:50:57;;;;;;;26.20;21.48;;;;;;;;;;4978691;28;20531;-71
2022/03/31 13:56:09;;;;;;;27.75;20.85;;;;;;;;;;4967159;28;20436;-71
2022/03/31 14:01:20;;;;;;;26.90;20.27;;;;;;;;;;4978775;28;20437;-72
2022/03/31 14:03:48;;;;;;;25.60;19.70;;;;;;;;;;4968357;28;20438;-70
2022/03/31 14:06:16;;;;;;;26.60;19.52;;;;;;;;;;4967267;28;20441;-71
2022/03/31 14:08:45;;;;;;;26.10;20.23;;;;;;;;;;4961382;28;20443;-71
2022/03/31 14:11:13;;;;;;;26.75;20.10;;;;;;;;;;4969956;28;20450;-71
2022/03/31 14:13:39;;;;;;;24.40;19.48;;;;;;;;;;4965549;28;20438;-70
2022/03/31 14:16:06;;;;;;;26.05;20.55;;;;;;;;;;4981477;28;20430;-71
2022/03/31 14:18:35;;;;;;;24.45;20.08;;;;;;;;;;4968034;28;20527;-71
2022/03/31 14:21:01;;;;;;;24.58;19.10;;;;;;;;;;4964037;28;20496;-72
2022/03/31 14:23:28;;;;;;;24.55;19.13;;;;;;;;;;4983188;28;20435;-72
2022/03/31 14:25:58;;;;;;;21.90;17.88;;;;;;;;;;4969379;28;20443;-71
2022/03/31 14:28:25;;;;;;;24.15;19.27;;;;;;;;;;4972092;28;20423;-72
2022/03/31 14:30:51;;;;;;;22.95;17.35;;;;;;;;;;4971654;28;20449;-72
2022/03/31 14:33:17;;;;;;;24.85;18.38;;;;;;;;;;4987668;28;20448;-72
2022/03/31 14:35:46;;;;;;;32.55;19.95;;;;;;;;;;4968977;28;20432;-71
2022/03/31 14:38:12;;;;;;;24.45;18.42;;;;;;;;;;4965807;28;20495;-71